sensor_id;sensor_type;location;lat;lon;timestamp;P1;durP1;ratioP1;P2;durP2;ratioP2
30247;SDS011;17063;50.892;4.702;2023-11-19T00:00:48;4.77;;;1.60;;
30247;SDS011;17063;50.892;4.702;2023-11-19T00:03:19;3.07;;;1.53;;
30247;SDS011;17063;50.892;4.702;2023-11-19T00:05:47;5.20;;;1.60;;
30247;SDS011;17063;50.892;4.702;2023-11-19T00:08:14;8.70;;;2.13;;
30247;SDS011;17063;50.892;4.702;2023-11-19T00:10:41;5.33;;;1.90;;
30247;SDS011;17063;50.892;4.702;2023-11-19T00:13:08;7.23;;;1.80;;
30247;SDS011;17063;50.892;4.702;2023-11-19T00:15:36;8.20;;;2.57;;
30247;SDS011;17063;50.892;4.702;2023-11-19T00:18:03;4.57;;;2.03;;
30247;SDS011;17063;50.892;4.702;2023-11-19T00:20:31;10.40;;;2.50;;
30247;SDS011;17063;50.892;4.702;2023-11-19T00:22:58;8.63;;;2.17;;
30247;SDS011;17063;50.892;4.702;2023-11-19T00:25:25;13.07;;;2.87;;
30247;SDS011;17063;50.892;4.702;2023-11-19T00:27:52;16.23;;;2.53;;
30247;SDS011;17063;50.892;4.702;2023-11-19T00:30:20;8.03;;;2.10;;
30247;SDS011;17063;50.892;4.702;2023-11-19T00:32:47;9.47;;;2.40;;
30247;SDS011;17063;50.892;4.702;2023-11-19T00:35:14;12.30;;;2.67;;
30247;SDS011;17063;50.892;4.702;2023-11-19T00:37:42;8.83;;;2.40;;
30247;SDS011;17063;50.892;4.702;2023-11-19T00:40:09;10.97;;;2.30;;
30247;SDS011;17063;50.892;4.702;2023-11-19T00:42:38;17.53;;;2.67;;
30247;SDS011;17063;50.892;4.702;2023-11-19T00:45:05;18.63;;;2.80;;
30247;SDS011;17063;50.892;4.702;2023-11-19T00:47:36;14.97;;;2.83;;
30247;SDS011;17063;50.892;4.702;2023-11-19T00:50:03;10.30;;;2.37;;
30247;SDS011;17063;50.892;4.702;2023-11-19T00:52:30;11.23;;;2.57;;
30247;SDS011;17063;50.892;4.702;2023-11-19T00:54:57;6.97;;;2.23;;
30247;SDS011;17063;50.892;4.702;2023-11-19T00:57:24;10.63;;;2.53;;
30247;SDS011;17063;50.892;4.702;2023-11-19T00:59:53;19.10;;;3.00;;
30247;SDS011;17063;50.892;4.702;2023-11-19T01:02:19;13.63;;;3.53;;
30247;SDS011;17063;50.892;4.702;2023-11-19T01:04:47;17.67;;;2.57;;
30247;SDS011;17063;50.892;4.702;2023-11-19T01:07:14;11.63;;;2.60;;
30247;SDS011;17063;50.892;4.702;2023-11-19T01:09:41;12.83;;;2.73;;
30247;SDS011;17063;50.892;4.702;2023-11-19T01:12:09;13.17;;;2.97;;
30247;SDS011;17063;50.892;4.702;2023-11-19T01:14:37;11.57;;;2.40;;
30247;SDS011;17063;50.892;4.702;2023-11-19T01:17:05;15.17;;;2.77;;
30247;SDS011;17063;50.892;4.702;2023-11-19T01:19:34;14.10;;;2.73;;
30247;SDS011;17063;50.892;4.702;2023-11-19T01:22:01;14.10;;;2.80;;
30247;SDS011;17063;50.892;4.702;2023-11-19T01:24:28;12.07;;;2.50;;
30247;SDS011;17063;50.892;4.702;2023-11-19T01:26:55;15.57;;;2.97;;
30247;SDS011;17063;50.892;4.702;2023-11-19T01:29:24;14.50;;;2.43;;
30247;SDS011;17063;50.892;4.702;2023-11-19T01:31:51;16.77;;;2.63;;
30247;SDS011;17063;50.892;4.702;2023-11-19T01:34:18;15.90;;;2.60;;
30247;SDS011;17063;50.892;4.702;2023-11-19T01:36:46;15.77;;;2.87;;
30247;SDS011;17063;50.892;4.702;2023-11-19T01:39:15;12.30;;;3.40;;
30247;SDS011;17063;50.892;4.702;2023-11-19T01:41:46;14.23;;;3.10;;
30247;SDS011;17063;50.892;4.702;2023-11-19T01:44:14;21.23;;;3.43;;
30247;SDS011;17063;50.892;4.702;2023-11-19T01:46:42;20.07;;;2.73;;
30247;SDS011;17063;50.892;4.702;2023-11-19T01:49:12;14.20;;;2.93;;
30247;SDS011;17063;50.892;4.702;2023-11-19T01:51:40;13.63;;;2.80;;
30247;SDS011;17063;50.892;4.702;2023-11-19T01:54:08;14.00;;;2.63;;
30247;SDS011;17063;50.892;4.702;2023-11-19T01:56:36;15.20;;;2.60;;
30247;SDS011;17063;50.892;4.702;2023-11-19T01:59:04;17.00;;;2.40;;
30247;SDS011;17063;50.892;4.702;2023-11-19T02:01:31;13.30;;;2.50;;
30247;SDS011;17063;50.892;4.702;2023-11-19T02:04:01;13.87;;;2.87;;
30247;SDS011;17063;50.892;4.702;2023-11-19T02:06:28;14.80;;;2.93;;
30247;SDS011;17063;50.892;4.702;2023-11-19T02:08:55;13.30;;;2.40;;
30247;SDS011;17063;50.892;4.702;2023-11-19T02:11:23;17.40;;;3.30;;
30247;SDS011;17063;50.892;4.702;2023-11-19T02:13:50;18.77;;;3.43;;
30247;SDS011;17063;50.892;4.702;2023-11-19T02:16:17;20.57;;;3.10;;
30247;SDS011;17063;50.892;4.702;2023-11-19T02:18:44;13.30;;;2.63;;
30247;SDS011;17063;50.892;4.702;2023-11-19T02:21:11;15.83;;;2.60;;
30247;SDS011;17063;50.892;4.702;2023-11-19T02:23:41;15.37;;;2.47;;
30247;SDS011;17063;50.892;4.702;2023-11-19T02:26:31;15.67;;;2.30;;
30247;SDS011;17063;50.892;4.702;2023-11-19T02:28:59;22.90;;;3.17;;
30247;SDS011;17063;50.892;4.702;2023-11-19T02:31:26;18.37;;;3.30;;
30247;SDS011;17063;50.892;4.702;2023-11-19T02:33:54;20.20;;;2.73;;
30247;SDS011;17063;50.892;4.702;2023-11-19T02:36:21;19.10;;;3.47;;
30247;SDS011;17063;50.892;4.702;2023-11-19T02:38:48;20.27;;;3.70;;
30247;SDS011;17063;50.892;4.702;2023-11-19T02:41:16;24.33;;;3.30;;
30247;SDS011;17063;50.892;4.702;2023-11-19T02:43:43;20.90;;;3.20;;
30247;SDS011;17063;50.892;4.702;2023-11-19T02:46:12;15.53;;;2.20;;
30247;SDS011;17063;50.892;4.702;2023-11-19T02:48:42;18.27;;;3.10;;
30247;SDS011;17063;50.892;4.702;2023-11-19T02:51:12;18.13;;;3.23;;
30247;SDS011;17063;50.892;4.702;2023-11-19T02:53:39;21.53;;;2.90;;
30247;SDS011;17063;50.892;4.702;2023-11-19T02:56:07;19.60;;;2.70;;
30247;SDS011;17063;50.892;4.702;2023-11-19T02:58:47;16.53;;;3.73;;
30247;SDS011;17063;50.892;4.702;2023-11-19T03:01:21;20.60;;;3.23;;
30247;SDS011;17063;50.892;4.702;2023-11-19T03:03:50;27.90;;;3.90;;
30247;SDS011;17063;50.892;4.702;2023-11-19T03:06:25;20.40;;;4.40;;
30247;SDS011;17063;50.892;4.702;2023-11-19T03:08:52;16.20;;;3.07;;
30247;SDS011;17063;50.892;4.702;2023-11-19T03:11:18;23.33;;;3.70;;
30247;SDS011;17063;50.892;4.702;2023-11-19T03:13:47;17.97;;;3.67;;
30247;SDS011;17063;50.892;4.702;2023-11-19T03:16:14;18.43;;;3.00;;
30247;SDS011;17063;50.892;4.702;2023-11-19T03:18:41;20.20;;;3.63;;
30247;SDS011;17063;50.892;4.702;2023-11-19T03:21:08;19.77;;;3.40;;
30247;SDS011;17063;50.892;4.702;2023-11-19T03:23:35;18.43;;;2.90;;
30247;SDS011;17063;50.892;4.702;2023-11-19T03:26:02;18.80;;;2.70;;
30247;SDS011;17063;50.892;4.702;2023-11-19T03:28:32;20.83;;;3.53;;
30247;SDS011;17063;50.892;4.702;2023-11-19T03:30:59;19.17;;;2.93;;
30247;SDS011;17063;50.892;4.702;2023-11-19T03:33:26;15.93;;;3.00;;
30247;SDS011;17063;50.892;4.702;2023-11-19T03:35:55;22.00;;;2.70;;
30247;SDS011;17063;50.892;4.702;2023-11-19T03:38:23;19.23;;;3.10;;
30247;SDS011;17063;50.892;4.702;2023-11-19T03:40:53;13.53;;;2.87;;
30247;SDS011;17063;50.892;4.702;2023-11-19T03:43:20;14.07;;;2.77;;
30247;SDS011;17063;50.892;4.702;2023-11-19T03:45:47;18.07;;;2.87;;
30247;SDS011;17063;50.892;4.702;2023-11-19T03:48:15;18.30;;;3.10;;
30247;SDS011;17063;50.892;4.702;2023-11-19T03:50:43;23.90;;;3.43;;
30247;SDS011;17063;50.892;4.702;2023-11-19T03:53:11;21.07;;;3.07;;
30247;SDS011;17063;50.892;4.702;2023-11-19T03:55:38;17.03;;;2.63;;
30247;SDS011;17063;50.892;4.702;2023-11-19T03:58:05;26.03;;;3.90;;
30247;SDS011;17063;50.892;4.702;2023-11-19T04:00:32;17.10;;;3.07;;
30247;SDS011;17063;50.892;4.702;2023-11-19T04:02:59;26.00;;;3.30;;
30247;SDS011;17063;50.892;4.702;2023-11-19T04:05:27;23.37;;;3.50;;
30247;SDS011;17063;50.892;4.702;2023-11-19T04:07:54;18.73;;;3.23;;
30247;SDS011;17063;50.892;4.702;2023-11-19T04:10:21;19.00;;;4.07;;
30247;SDS011;17063;50.892;4.702;2023-11-19T04:12:49;18.63;;;3.63;;
30247;SDS011;17063;50.892;4.702;2023-11-19T04:15:16;24.03;;;3.60;;
30247;SDS011;17063;50.892;4.702;2023-11-19T04:17:43;22.43;;;3.37;;
30247;SDS011;17063;50.892;4.702;2023-11-19T04:20:11;23.23;;;4.00;;
30247;SDS011;17063;50.892;4.702;2023-11-19T04:22:41;18.57;;;3.30;;
30247;SDS011;17063;50.892;4.702;2023-11-19T04:25:08;30.40;;;3.90;;
30247;SDS011;17063;50.892;4.702;2023-11-19T04:27:36;22.60;;;3.80;;
30247;SDS011;17063;50.892;4.702;2023-11-19T04:30:03;27.57;;;4.30;;
30247;SDS011;17063;50.892;4.702;2023-11-19T04:32:31;23.60;;;3.30;;
30247;SDS011;17063;50.892;4.702;2023-11-19T04:34:58;16.30;;;2.97;;
30247;SDS011;17063;50.892;4.702;2023-11-19T04:37:26;16.33;;;3.27;;
30247;SDS011;17063;50.892;4.702;2023-11-19T04:39:53;30.33;;;3.40;;
30247;SDS011;17063;50.892;4.702;2023-11-19T04:42:23;25.83;;;4.03;;
30247;SDS011;17063;50.892;4.702;2023-11-19T04:44:50;24.40;;;3.60;;
30247;SDS011;17063;50.892;4.702;2023-11-19T04:47:17;19.43;;;3.47;;
30247;SDS011;17063;50.892;4.702;2023-11-19T04:49:44;24.27;;;3.40;;
30247;SDS011;17063;50.892;4.702;2023-11-19T04:52:11;20.27;;;2.83;;
30247;SDS011;17063;50.892;4.702;2023-11-19T04:54:42;27.57;;;4.70;;
30247;SDS011;17063;50.892;4.702;2023-11-19T04:57:10;25.20;;;3.73;;
30247;SDS011;17063;50.892;4.702;2023-11-19T04:59:37;32.87;;;4.00;;
30247;SDS011;17063;50.892;4.702;2023-11-19T05:02:05;26.73;;;3.73;;
30247;SDS011;17063;50.892;4.702;2023-11-19T05:04:32;27.03;;;3.93;;
30247;SDS011;17063;50.892;4.702;2023-11-19T05:06:59;29.27;;;3.83;;
30247;SDS011;17063;50.892;4.702;2023-11-19T05:09:26;22.23;;;4.37;;
30247;SDS011;17063;50.892;4.702;2023-11-19T05:11:53;27.90;;;3.67;;
30247;SDS011;17063;50.892;4.702;2023-11-19T05:14:20;33.80;;;5.10;;
30247;SDS011;17063;50.892;4.702;2023-11-19T05:16:48;22.60;;;3.50;;
30247;SDS011;17063;50.892;4.702;2023-11-19T05:19:16;30.57;;;4.77;;
30247;SDS011;17063;50.892;4.702;2023-11-19T05:21:43;29.33;;;4.47;;
30247;SDS011;17063;50.892;4.702;2023-11-19T05:24:10;36.17;;;4.77;;
30247;SDS011;17063;50.892;4.702;2023-11-19T05:26:38;22.20;;;3.50;;
30247;SDS011;17063;50.892;4.702;2023-11-19T05:29:05;30.23;;;4.73;;
30247;SDS011;17063;50.892;4.702;2023-11-19T05:31:32;23.70;;;4.20;;
30247;SDS011;17063;50.892;4.702;2023-11-19T05:34:03;36.17;;;4.10;;
30247;SDS011;17063;50.892;4.702;2023-11-19T05:36:31;24.97;;;4.00;;
30247;SDS011;17063;50.892;4.702;2023-11-19T05:38:58;23.53;;;3.80;;
30247;SDS011;17063;50.892;4.702;2023-11-19T05:41:25;28.87;;;3.67;;
30247;SDS011;17063;50.892;4.702;2023-11-19T05:43:51;22.70;;;3.37;;
30247;SDS011;17063;50.892;4.702;2023-11-19T05:46:18;22.47;;;3.80;;
30247;SDS011;17063;50.892;4.702;2023-11-19T05:48:47;26.30;;;4.50;;
30247;SDS011;17063;50.892;4.702;2023-11-19T05:51:14;24.10;;;5.20;;
30247;SDS011;17063;50.892;4.702;2023-11-19T05:53:42;24.60;;;3.57;;
30247;SDS011;17063;50.892;4.702;2023-11-19T05:56:10;24.53;;;4.73;;
30247;SDS011;17063;50.892;4.702;2023-11-19T05:58:37;25.00;;;4.00;;
30247;SDS011;17063;50.892;4.702;2023-11-19T06:01:05;22.40;;;3.73;;
30247;SDS011;17063;50.892;4.702;2023-11-19T06:03:35;26.47;;;3.73;;
30247;SDS011;17063;50.892;4.702;2023-11-19T06:06:03;26.27;;;4.33;;
30247;SDS011;17063;50.892;4.702;2023-11-19T06:08:31;26.03;;;3.83;;
30247;SDS011;17063;50.892;4.702;2023-11-19T06:10:58;26.37;;;4.20;;
30247;SDS011;17063;50.892;4.702;2023-11-19T06:13:28;21.57;;;3.80;;
30247;SDS011;17063;50.892;4.702;2023-11-19T06:15:58;32.37;;;4.20;;
30247;SDS011;17063;50.892;4.702;2023-11-19T06:18:25;29.53;;;4.13;;
30247;SDS011;17063;50.892;4.702;2023-11-19T06:20:52;24.87;;;4.27;;
30247;SDS011;17063;50.892;4.702;2023-11-19T06:23:19;22.00;;;4.47;;
30247;SDS011;17063;50.892;4.702;2023-11-19T06:25:46;27.93;;;4.07;;
30247;SDS011;17063;50.892;4.702;2023-11-19T06:28:13;20.60;;;3.43;;
30247;SDS011;17063;50.892;4.702;2023-11-19T06:30:41;31.37;;;4.20;;
30247;SDS011;17063;50.892;4.702;2023-11-19T06:33:08;30.03;;;4.40;;
30247;SDS011;17063;50.892;4.702;2023-11-19T06:35:35;27.37;;;4.17;;
30247;SDS011;17063;50.892;4.702;2023-11-19T06:38:05;31.03;;;4.17;;
30247;SDS011;17063;50.892;4.702;2023-11-19T06:40:32;35.60;;;4.17;;
30247;SDS011;17063;50.892;4.702;2023-11-19T06:42:59;27.73;;;4.07;;
30247;SDS011;17063;50.892;4.702;2023-11-19T06:45:26;32.57;;;4.97;;
30247;SDS011;17063;50.892;4.702;2023-11-19T06:50:44;21.13;;;3.57;;
30247;SDS011;17063;50.892;4.702;2023-11-19T06:53:11;26.33;;;3.53;;
30247;SDS011;17063;50.892;4.702;2023-11-19T06:55:39;22.57;;;4.63;;
30247;SDS011;17063;50.892;4.702;2023-11-19T06:58:14;27.97;;;3.43;;
30247;SDS011;17063;50.892;4.702;2023-11-19T07:00:42;23.57;;;3.47;;
30247;SDS011;17063;50.892;4.702;2023-11-19T07:03:18;26.67;;;4.03;;
30247;SDS011;17063;50.892;4.702;2023-11-19T07:05:47;21.07;;;3.73;;
30247;SDS011;17063;50.892;4.702;2023-11-19T07:08:18;26.20;;;4.37;;
30247;SDS011;17063;50.892;4.702;2023-11-19T07:10:45;29.13;;;3.97;;
30247;SDS011;17063;50.892;4.702;2023-11-19T07:13:14;26.73;;;4.93;;
30247;SDS011;17063;50.892;4.702;2023-11-19T07:15:41;28.30;;;3.55;;
30247;SDS011;17063;50.892;4.702;2023-11-19T07:30:07;27.03;;;3.40;;
30247;SDS011;17063;50.892;4.702;2023-11-19T07:32:37;23.70;;;4.40;;
30247;SDS011;17063;50.892;4.702;2023-11-19T07:35:09;35.83;;;4.43;;
30247;SDS011;17063;50.892;4.702;2023-11-19T07:37:36;39.07;;;5.77;;
30247;SDS011;17063;50.892;4.702;2023-11-19T07:40:04;21.13;;;3.80;;
30247;SDS011;17063;50.892;4.702;2023-11-19T07:42:32;23.73;;;3.47;;
30247;SDS011;17063;50.892;4.702;2023-11-19T07:44:58;22.83;;;3.50;;
30247;SDS011;17063;50.892;4.702;2023-11-19T07:47:25;31.00;;;4.87;;
30247;SDS011;17063;50.892;4.702;2023-11-19T07:49:52;25.63;;;4.00;;
30247;SDS011;17063;50.892;4.702;2023-11-19T07:52:19;32.63;;;4.33;;
30247;SDS011;17063;50.892;4.702;2023-11-19T07:54:48;24.20;;;4.47;;
30247;SDS011;17063;50.892;4.702;2023-11-19T07:57:15;31.53;;;3.70;;
30247;SDS011;17063;50.892;4.702;2023-11-19T07:59:42;29.50;;;4.33;;
30247;SDS011;17063;50.892;4.702;2023-11-19T08:02:09;29.67;;;4.73;;
30247;SDS011;17063;50.892;4.702;2023-11-19T08:04:36;35.30;;;4.47;;
30247;SDS011;17063;50.892;4.702;2023-11-19T08:07:06;27.70;;;3.87;;
30247;SDS011;17063;50.892;4.702;2023-11-19T08:09:34;28.83;;;3.50;;
30247;SDS011;17063;50.892;4.702;2023-11-19T08:12:01;40.20;;;4.20;;
30247;SDS011;17063;50.892;4.702;2023-11-19T08:14:28;25.07;;;3.70;;
30247;SDS011;17063;50.892;4.702;2023-11-19T08:16:54;28.10;;;4.03;;
30247;SDS011;17063;50.892;4.702;2023-11-19T08:19:21;30.73;;;4.63;;
30247;SDS011;17063;50.892;4.702;2023-11-19T08:21:48;28.87;;;4.10;;
30247;SDS011;17063;50.892;4.702;2023-11-19T08:24:15;25.50;;;4.17;;
30247;SDS011;17063;50.892;4.702;2023-11-19T08:26:43;23.37;;;3.87;;
30247;SDS011;17063;50.892;4.702;2023-11-19T08:29:09;26.63;;;3.47;;
30247;SDS011;17063;50.892;4.702;2023-11-19T08:31:37;25.83;;;4.50;;
30247;SDS011;17063;50.892;4.702;2023-11-19T08:34:03;33.87;;;4.57;;
30247;SDS011;17063;50.892;4.702;2023-11-19T08:36:30;25.77;;;4.10;;
30247;SDS011;17063;50.892;4.702;2023-11-19T08:38:58;30.17;;;5.67;;
30247;SDS011;17063;50.892;4.702;2023-11-19T08:41:25;25.03;;;3.70;;
30247;SDS011;17063;50.892;4.702;2023-11-19T08:43:52;26.27;;;4.47;;
30247;SDS011;17063;50.892;4.702;2023-11-19T08:46:19;20.70;;;3.90;;
30247;SDS011;17063;50.892;4.702;2023-11-19T08:48:46;33.00;;;4.20;;
30247;SDS011;17063;50.892;4.702;2023-11-19T08:51:13;27.10;;;4.40;;
30247;SDS011;17063;50.892;4.702;2023-11-19T08:53:39;25.13;;;4.43;;
30247;SDS011;17063;50.892;4.702;2023-11-19T08:56:07;20.23;;;4.00;;
30247;SDS011;17063;50.892;4.702;2023-11-19T08:58:34;29.63;;;3.80;;
30247;SDS011;17063;50.892;4.702;2023-11-19T09:01:01;32.57;;;4.93;;
30247;SDS011;17063;50.892;4.702;2023-11-19T09:03:29;27.60;;;4.57;;
30247;SDS011;17063;50.892;4.702;2023-11-19T09:05:59;27.07;;;4.10;;
30247;SDS011;17063;50.892;4.702;2023-11-19T09:08:26;23.73;;;4.10;;
30247;SDS011;17063;50.892;4.702;2023-11-19T09:10:53;17.20;;;3.60;;
30247;SDS011;17063;50.892;4.702;2023-11-19T09:13:21;19.83;;;3.53;;
30247;SDS011;17063;50.892;4.702;2023-11-19T09:15:48;28.73;;;3.83;;
30247;SDS011;17063;50.892;4.702;2023-11-19T09:18:15;25.90;;;3.63;;
30247;SDS011;17063;50.892;4.702;2023-11-19T09:20:42;31.47;;;4.70;;
30247;SDS011;17063;50.892;4.702;2023-11-19T09:23:09;17.87;;;3.43;;
30247;SDS011;17063;50.892;4.702;2023-11-19T09:25:36;20.17;;;4.50;;
30247;SDS011;17063;50.892;4.702;2023-11-19T09:28:08;33.50;;;5.27;;
30247;SDS011;17063;50.892;4.702;2023-11-19T09:30:35;25.90;;;4.80;;
30247;SDS011;17063;50.892;4.702;2023-11-19T09:33:02;33.40;;;3.83;;
30247;SDS011;17063;50.892;4.702;2023-11-19T09:35:29;29.13;;;3.97;;
30247;SDS011;17063;50.892;4.702;2023-11-19T09:37:57;31.17;;;3.67;;
30247;SDS011;17063;50.892;4.702;2023-11-19T09:40:23;21.47;;;4.20;;
30247;SDS011;17063;50.892;4.702;2023-11-19T09:42:50;27.50;;;3.93;;
30247;SDS011;17063;50.892;4.702;2023-11-19T09:45:17;21.77;;;3.77;;
30247;SDS011;17063;50.892;4.702;2023-11-19T09:47:47;16.77;;;3.37;;
30247;SDS011;17063;50.892;4.702;2023-11-19T09:50:19;21.83;;;3.33;;
30247;SDS011;17063;50.892;4.702;2023-11-19T09:52:46;14.73;;;3.17;;
30247;SDS011;17063;50.892;4.702;2023-11-19T09:55:14;20.60;;;3.20;;
30247;SDS011;17063;50.892;4.702;2023-11-19T09:57:41;18.87;;;3.00;;
30247;SDS011;17063;50.892;4.702;2023-11-19T10:00:09;19.50;;;3.20;;
30247;SDS011;17063;50.892;4.702;2023-11-19T10:02:39;15.37;;;2.77;;
30247;SDS011;17063;50.892;4.702;2023-11-19T10:05:07;17.43;;;3.17;;
30247;SDS011;17063;50.892;4.702;2023-11-19T10:07:35;15.60;;;2.87;;
30247;SDS011;17063;50.892;4.702;2023-11-19T10:10:07;20.67;;;3.43;;
30247;SDS011;17063;50.892;4.702;2023-11-19T10:12:35;20.53;;;3.63;;
30247;SDS011;17063;50.892;4.702;2023-11-19T10:15:02;20.30;;;3.83;;
30247;SDS011;17063;50.892;4.702;2023-11-19T10:17:34;17.50;;;3.37;;
30247;SDS011;17063;50.892;4.702;2023-11-19T10:20:01;15.47;;;3.40;;
30247;SDS011;17063;50.892;4.702;2023-11-19T10:22:29;23.33;;;3.80;;
30247;SDS011;17063;50.892;4.702;2023-11-19T10:24:56;15.20;;;3.40;;
30247;SDS011;17063;50.892;4.702;2023-11-19T10:27:24;18.73;;;3.70;;
30247;SDS011;17063;50.892;4.702;2023-11-19T10:29:55;17.17;;;2.73;;
30247;SDS011;17063;50.892;4.702;2023-11-19T10:32:26;26.93;;;3.80;;
30247;SDS011;17063;50.892;4.702;2023-11-19T10:35:04;26.90;;;3.37;;
30247;SDS011;17063;50.892;4.702;2023-11-19T10:37:33;23.70;;;3.27;;
30247;SDS011;17063;50.892;4.702;2023-11-19T10:40:02;21.73;;;3.30;;
30247;SDS011;17063;50.892;4.702;2023-11-19T10:42:33;23.13;;;4.23;;
30247;SDS011;17063;50.892;4.702;2023-11-19T10:45:00;23.07;;;4.20;;
30247;SDS011;17063;50.892;4.702;2023-11-19T10:47:27;28.57;;;4.40;;
30247;SDS011;17063;50.892;4.702;2023-11-19T10:50:02;23.97;;;3.50;;
30247;SDS011;17063;50.892;4.702;2023-11-19T10:52:33;17.27;;;3.83;;
30247;SDS011;17063;50.892;4.702;2023-11-19T10:55:06;18.93;;;3.67;;
30247;SDS011;17063;50.892;4.702;2023-11-19T10:57:36;16.37;;;2.90;;
30247;SDS011;17063;50.892;4.702;2023-11-19T11:00:04;16.80;;;3.27;;
30247;SDS011;17063;50.892;4.702;2023-11-19T11:02:40;16.83;;;3.17;;
30247;SDS011;17063;50.892;4.702;2023-11-19T11:05:11;23.00;;;3.47;;
30247;SDS011;17063;50.892;4.702;2023-11-19T11:07:40;28.77;;;3.47;;
30247;SDS011;17063;50.892;4.702;2023-11-19T11:10:08;18.53;;;2.93;;
30247;SDS011;17063;50.892;4.702;2023-11-19T11:12:36;14.87;;;2.97;;
30247;SDS011;17063;50.892;4.702;2023-11-19T11:15:09;18.80;;;3.10;;
30247;SDS011;17063;50.892;4.702;2023-11-19T11:17:39;23.77;;;3.10;;
30247;SDS011;17063;50.892;4.702;2023-11-19T11:20:17;20.73;;;3.73;;
30247;SDS011;17063;50.892;4.702;2023-11-19T11:28:35;25.70;;;3.87;;
30247;SDS011;17063;50.892;4.702;2023-11-19T11:36:50;19.43;;;3.43;;
30247;SDS011;17063;50.892;4.702;2023-11-19T11:39:25;15.03;;;2.80;;
30247;SDS011;17063;50.892;4.702;2023-11-19T11:42:41;23.03;;;3.93;;
30247;SDS011;17063;50.892;4.702;2023-11-19T11:44:59;20.33;;;3.57;;
30247;SDS011;17063;50.892;4.702;2023-11-19T11:55:34;23.40;;;4.20;;
30247;SDS011;17063;50.892;4.702;2023-11-19T11:58:05;15.93;;;3.33;;
30247;SDS011;17063;50.892;4.702;2023-11-19T12:00:33;22.00;;;3.57;;
30247;SDS011;17063;50.892;4.702;2023-11-19T12:03:07;19.30;;;3.10;;
30247;SDS011;17063;50.892;4.702;2023-11-19T12:05:41;24.77;;;3.23;;
30247;SDS011;17063;50.892;4.702;2023-11-19T12:08:14;21.73;;;3.67;;
30247;SDS011;17063;50.892;4.702;2023-11-19T12:10:53;19.83;;;3.83;;
30247;SDS011;17063;50.892;4.702;2023-11-19T12:13:29;25.03;;;3.27;;
30247;SDS011;17063;50.892;4.702;2023-11-19T12:16:14;13.97;;;3.10;;
30247;SDS011;17063;50.892;4.702;2023-11-19T12:18:43;19.27;;;3.40;;
30247;SDS011;17063;50.892;4.702;2023-11-19T12:21:12;17.07;;;2.97;;
30247;SDS011;17063;50.892;4.702;2023-11-19T12:24:00;15.73;;;3.17;;
30247;SDS011;17063;50.892;4.702;2023-11-19T12:26:47;13.80;;;3.00;;
30247;SDS011;17063;50.892;4.702;2023-11-19T12:29:19;22.43;;;3.53;;
30247;SDS011;17063;50.892;4.702;2023-11-19T12:31:53;19.23;;;2.80;;
30247;SDS011;17063;50.892;4.702;2023-11-19T12:34:20;15.27;;;2.53;;
30247;SDS011;17063;50.892;4.702;2023-11-19T12:36:51;14.83;;;2.20;;
30247;SDS011;17063;50.892;4.702;2023-11-19T12:39:18;12.90;;;2.37;;
30247;SDS011;17063;50.892;4.702;2023-11-19T12:41:49;13.87;;;2.60;;
30247;SDS011;17063;50.892;4.702;2023-11-19T12:44:18;21.83;;;2.70;;
30247;SDS011;17063;50.892;4.702;2023-11-19T12:46:45;14.13;;;2.33;;
30247;SDS011;17063;50.892;4.702;2023-11-19T12:49:11;18.87;;;3.23;;
30247;SDS011;17063;50.892;4.702;2023-11-19T12:51:38;11.70;;;2.63;;
30247;SDS011;17063;50.892;4.702;2023-11-19T12:54:05;28.60;;;3.50;;
30247;SDS011;17063;50.892;4.702;2023-11-19T12:56:32;16.43;;;3.13;;
30247;SDS011;17063;50.892;4.702;2023-11-19T12:59:09;24.90;;;3.60;;
30247;SDS011;17063;50.892;4.702;2023-11-19T13:01:38;16.20;;;3.47;;
30247;SDS011;17063;50.892;4.702;2023-11-19T13:04:17;24.87;;;4.03;;
30247;SDS011;17063;50.892;4.702;2023-11-19T13:06:45;23.80;;;3.27;;
30247;SDS011;17063;50.892;4.702;2023-11-19T13:09:30;17.00;;;2.93;;
30247;SDS011;17063;50.892;4.702;2023-11-19T13:11:58;21.17;;;3.80;;
30247;SDS011;17063;50.892;4.702;2023-11-19T13:14:36;15.17;;;2.53;;
30247;SDS011;17063;50.892;4.702;2023-11-19T13:17:06;25.20;;;4.40;;
30247;SDS011;17063;50.892;4.702;2023-11-19T13:19:33;19.13;;;3.20;;
30247;SDS011;17063;50.892;4.702;2023-11-19T13:22:01;16.03;;;2.90;;
30247;SDS011;17063;50.892;4.702;2023-11-19T13:24:28;25.17;;;3.77;;
30247;SDS011;17063;50.892;4.702;2023-11-19T13:26:55;24.57;;;3.80;;
30247;SDS011;17063;50.892;4.702;2023-11-19T13:29:22;18.47;;;3.77;;
30247;SDS011;17063;50.892;4.702;2023-11-19T13:31:49;20.20;;;3.03;;
30247;SDS011;17063;50.892;4.702;2023-11-19T13:34:16;18.37;;;4.13;;
30247;SDS011;17063;50.892;4.702;2023-11-19T13:36:43;17.73;;;3.47;;
30247;SDS011;17063;50.892;4.702;2023-11-19T13:39:10;19.83;;;3.40;;
30247;SDS011;17063;50.892;4.702;2023-11-19T13:41:39;24.30;;;3.20;;
30247;SDS011;17063;50.892;4.702;2023-11-19T13:44:07;19.53;;;3.00;;
30247;SDS011;17063;50.892;4.702;2023-11-19T13:46:37;15.03;;;3.13;;
30247;SDS011;17063;50.892;4.702;2023-11-19T13:49:14;17.87;;;3.10;;
30247;SDS011;17063;50.892;4.702;2023-11-19T13:51:42;13.83;;;2.70;;
30247;SDS011;17063;50.892;4.702;2023-11-19T13:54:09;13.30;;;3.40;;
30247;SDS011;17063;50.892;4.702;2023-11-19T13:56:44;18.23;;;2.60;;
30247;SDS011;17063;50.892;4.702;2023-11-19T14:02:42;20.10;;;4.00;;
30247;SDS011;17063;50.892;4.702;2023-11-19T14:05:33;17.30;;;2.73;;
30247;SDS011;17063;50.892;4.702;2023-11-19T14:08:04;24.67;;;3.93;;
30247;SDS011;17063;50.892;4.702;2023-11-19T14:10:51;19.07;;;3.50;;
30247;SDS011;17063;50.892;4.702;2023-11-19T14:13:20;23.30;;;3.67;;
30247;SDS011;17063;50.892;4.702;2023-11-19T14:15:54;21.50;;;3.63;;
30247;SDS011;17063;50.892;4.702;2023-11-19T14:18:26;17.13;;;2.63;;
30247;SDS011;17063;50.892;4.702;2023-11-19T14:20:57;23.13;;;3.70;;
30247;SDS011;17063;50.892;4.702;2023-11-19T14:23:29;18.80;;;3.37;;
30247;SDS011;17063;50.892;4.702;2023-11-19T14:25:56;23.47;;;3.80;;
30247;SDS011;17063;50.892;4.702;2023-11-19T14:28:23;20.20;;;3.40;;
30247;SDS011;17063;50.892;4.702;2023-11-19T14:30:53;19.73;;;3.63;;
30247;SDS011;17063;50.892;4.702;2023-11-19T14:33:33;25.00;;;4.33;;
30247;SDS011;17063;50.892;4.702;2023-11-19T14:36:06;22.70;;;4.13;;
30247;SDS011;17063;50.892;4.702;2023-11-19T14:38:37;24.77;;;3.60;;
30247;SDS011;17063;50.892;4.702;2023-11-19T14:41:05;24.27;;;3.67;;
30247;SDS011;17063;50.892;4.702;2023-11-19T14:43:34;27.10;;;3.53;;
30247;SDS011;17063;50.892;4.702;2023-11-19T14:46:01;23.60;;;3.43;;
30247;SDS011;17063;50.892;4.702;2023-11-19T14:48:31;21.23;;;4.43;;
30247;SDS011;17063;50.892;4.702;2023-11-19T14:51:02;32.27;;;4.20;;
30247;SDS011;17063;50.892;4.702;2023-11-19T14:53:32;24.97;;;3.80;;
30247;SDS011;17063;50.892;4.702;2023-11-19T14:55:59;25.50;;;3.53;;
30247;SDS011;17063;50.892;4.702;2023-11-19T14:58:28;18.37;;;3.03;;
30247;SDS011;17063;50.892;4.702;2023-11-19T15:00:58;22.80;;;3.50;;
30247;SDS011;17063;50.892;4.702;2023-11-19T15:03:30;17.47;;;3.50;;
30247;SDS011;17063;50.892;4.702;2023-11-19T15:06:06;21.30;;;3.70;;
30247;SDS011;17063;50.892;4.702;2023-11-19T15:08:36;22.03;;;3.93;;
30247;SDS011;17063;50.892;4.702;2023-11-19T15:11:28;20.77;;;3.57;;
30247;SDS011;17063;50.892;4.702;2023-11-19T15:14:01;12.77;;;3.17;;
30247;SDS011;17063;50.892;4.702;2023-11-19T15:16:43;29.43;;;4.13;;
30247;SDS011;17063;50.892;4.702;2023-11-19T15:19:15;20.30;;;3.03;;
30247;SDS011;17063;50.892;4.702;2023-11-19T15:21:42;24.67;;;3.23;;
30247;SDS011;17063;50.892;4.702;2023-11-19T15:24:15;19.83;;;3.27;;